sensor_id;sensor_type;location;lat;lon;timestamp;temperature;humidity
74376;HTU21D;62812;55.188;61.302;2023-08-06T00:01:03;24.21;62.39
74376;HTU21D;62812;55.188;61.302;2023-08-06T00:03:30;24.33;62.31
74376;HTU21D;62812;55.188;61.302;2023-08-06T00:06:25;24.43;61.92
74376;HTU21D;62812;55.188;61.302;2023-08-06T00:08:51;24.58;61.32
74376;HTU21D;62812;55.188;61.302;2023-08-06T00:11:18;24.59;61.47
74376;HTU21D;62812;55.188;61.302;2023-08-06T00:13:45;24.59;61.56
74376;HTU21D;62812;55.188;61.302;2023-08-06T00:16:12;24.60;61.07
74376;HTU21D;62812;55.188;61.302;2023-08-06T00:18:39;24.64;60.98
74376;HTU21D;62812;55.188;61.302;2023-08-06T00:21:06;24.59;61.23
74376;HTU21D;62812;55.188;61.302;2023-08-06T00:23:34;24.45;61.23
74376;HTU21D;62812;55.188;61.302;2023-08-06T00:26:00;24.31;61.51
74376;HTU21D;62812;55.188;61.302;2023-08-06T00:28:27;23.95;62.43
74376;HTU21D;62812;55.188;61.302;2023-08-06T00:30:53;23.77;63.22
74376;HTU21D;62812;55.188;61.302;2023-08-06T00:33:26;23.66;63.80
74376;HTU21D;62812;55.188;61.302;2023-08-06T00:35:52;23.62;63.89
74376;HTU21D;62812;55.188;61.302;2023-08-06T00:38:19;23.61;64.02
74376;HTU21D;62812;55.188;61.302;2023-08-06T00:40:47;23.62;63.98
74376;HTU21D;62812;55.188;61.302;2023-08-06T00:43:14;23.38;64.63
74376;HTU21D;62812;55.188;61.302;2023-08-06T00:45:40;23.06;66.08
74376;HTU21D;62812;55.188;61.302;2023-08-06T00:48:07;22.73;67.46
74376;HTU21D;62812;55.188;61.302;2023-08-06T00:50:34;22.49;68.41
74376;HTU21D;62812;55.188;61.302;2023-08-06T00:53:01;22.29;69.29
74376;HTU21D;62812;55.188;61.302;2023-08-06T00:55:28;22.31;69.08
74376;HTU21D;62812;55.188;61.302;2023-08-06T00:57:56;22.57;68.04
74376;HTU21D;62812;55.188;61.302;2023-08-06T01:00:24;23.06;66.71
74376;HTU21D;62812;55.188;61.302;2023-08-06T01:02:51;23.59;65.06
74376;HTU21D;62812;55.188;61.302;2023-08-06T01:05:18;23.92;63.99
74376;HTU21D;62812;55.188;61.302;2023-08-06T01:07:51;24.20;63.09
74376;HTU21D;62812;55.188;61.302;2023-08-06T01:10:34;24.29;62.25
74376;HTU21D;62812;55.188;61.302;2023-08-06T01:13:14;24.12;62.91
74376;HTU21D;62812;55.188;61.302;2023-08-06T01:15:46;24.01;63.34
74376;HTU21D;62812;55.188;61.302;2023-08-06T01:18:14;24.25;63.08
74376;HTU21D;62812;55.188;61.302;2023-08-06T01:20:42;24.39;62.24
74376;HTU21D;62812;55.188;61.302;2023-08-06T01:23:10;24.63;62.08
74376;HTU21D;62812;55.188;61.302;2023-08-06T01:25:43;25.06;60.86
74376;HTU21D;62812;55.188;61.302;2023-08-06T01:28:20;25.68;58.82
74376;HTU21D;62812;55.188;61.302;2023-08-06T01:30:50;26.25;56.96
74376;HTU21D;62812;55.188;61.302;2023-08-06T01:33:22;26.70;55.53
74376;HTU21D;62812;55.188;61.302;2023-08-06T01:35:54;27.16;54.09
74376;HTU21D;62812;55.188;61.302;2023-08-06T01:38:21;27.32;53.27
74376;HTU21D;62812;55.188;61.302;2023-08-06T01:40:47;27.44;52.73
74376;HTU21D;62812;55.188;61.302;2023-08-06T01:43:14;27.59;52.61
74376;HTU21D;62812;55.188;61.302;2023-08-06T01:45:40;27.67;52.62
74376;HTU21D;62812;55.188;61.302;2023-08-06T01:48:07;27.88;51.68
74376;HTU21D;62812;55.188;61.302;2023-08-06T01:50:33;28.23;50.69
74376;HTU21D;62812;55.188;61.302;2023-08-06T01:53:01;28.63;49.36
74376;HTU21D;62812;55.188;61.302;2023-08-06T01:55:29;28.97;48.67
74376;HTU21D;62812;55.188;61.302;2023-08-06T01:57:57;29.24;47.89
74376;HTU21D;62812;55.188;61.302;2023-08-06T02:00:23;29.47;47.41
74376;HTU21D;62812;55.188;61.302;2023-08-06T02:02:53;29.73;46.44
74376;HTU21D;62812;55.188;61.302;2023-08-06T02:05:19;29.79;46.91
74376;HTU21D;62812;55.188;61.302;2023-08-06T02:07:45;30.08;45.70
74376;HTU21D;62812;55.188;61.302;2023-08-06T02:10:13;30.24;44.53
74376;HTU21D;62812;55.188;61.302;2023-08-06T02:12:40;30.10;45.51
74376;HTU21D;62812;55.188;61.302;2023-08-06T02:15:07;30.22;45.64
74376;HTU21D;62812;55.188;61.302;2023-08-06T02:17:34;30.66;44.41
74376;HTU21D;62812;55.188;61.302;2023-08-06T02:20:00;31.00;43.19
74376;HTU21D;62812;55.188;61.302;2023-08-06T02:22:28;31.38;42.07
74376;HTU21D;62812;55.188;61.302;2023-08-06T02:24:55;31.66;41.52
74376;HTU21D;62812;55.188;61.302;2023-08-06T02:27:23;31.87;41.02
74376;HTU21D;62812;55.188;61.302;2023-08-06T02:29:50;31.95;40.98
74376;HTU21D;62812;55.188;61.302;2023-08-06T02:32:17;31.97;40.57
74376;HTU21D;62812;55.188;61.302;2023-08-06T02:34:49;31.95;40.41
74376;HTU21D;62812;55.188;61.302;2023-08-06T02:37:15;31.98;40.40
74376;HTU21D;62812;55.188;61.302;2023-08-06T02:39:42;32.09;40.27
74376;HTU21D;62812;55.188;61.302;2023-08-06T02:42:09;32.13;40.07
74376;HTU21D;62812;55.188;61.302;2023-08-06T02:44:37;32.14;39.95
74376;HTU21D;62812;55.188;61.302;2023-08-06T02:47:04;32.08;39.97
74376;HTU21D;62812;55.188;61.302;2023-08-06T02:49:31;32.01;40.07
74376;HTU21D;62812;55.188;61.302;2023-08-06T02:51:57;32.04;39.95
74376;HTU21D;62812;55.188;61.302;2023-08-06T02:54:24;32.13;39.87
74376;HTU21D;62812;55.188;61.302;2023-08-06T02:56:51;32.20;39.56
74376;HTU21D;62812;55.188;61.302;2023-08-06T02:59:18;32.08;39.97
74376;HTU21D;62812;55.188;61.302;2023-08-06T03:01:46;32.20;39.75
74376;HTU21D;62812;55.188;61.302;2023-08-06T03:04:13;32.38;39.31
74376;HTU21D;62812;55.188;61.302;2023-08-06T03:06:39;32.43;39.14
74376;HTU21D;62812;55.188;61.302;2023-08-06T03:09:06;32.55;38.92
74376;HTU21D;62812;55.188;61.302;2023-08-06T03:11:32;32.77;38.55
74376;HTU21D;62812;55.188;61.302;2023-08-06T03:13:59;32.67;38.49
74376;HTU21D;62812;55.188;61.302;2023-08-06T03:16:25;32.82;38.22
74376;HTU21D;62812;55.188;61.302;2023-08-06T03:18:53;32.91;38.17
74376;HTU21D;62812;55.188;61.302;2023-08-06T03:21:20;32.99;38.00
74376;HTU21D;62812;55.188;61.302;2023-08-06T03:23:47;32.99;37.98
74376;HTU21D;62812;55.188;61.302;2023-08-06T03:26:14;32.99;37.82
74376;HTU21D;62812;55.188;61.302;2023-08-06T03:28:41;33.03;37.85
74376;HTU21D;62812;55.188;61.302;2023-08-06T03:31:08;32.88;38.13
74376;HTU21D;62812;55.188;61.302;2023-08-06T03:33:40;32.90;38.20
74376;HTU21D;62812;55.188;61.302;2023-08-06T03:36:08;32.92;38.08
74376;HTU21D;62812;55.188;61.302;2023-08-06T03:38:34;33.07;37.82
74376;HTU21D;62812;55.188;61.302;2023-08-06T03:41:02;33.25;37.94
74376;HTU21D;62812;55.188;61.302;2023-08-06T03:43:29;33.34;37.39
74376;HTU21D;62812;55.188;61.302;2023-08-06T03:45:57;33.53;36.96
74376;HTU21D;62812;55.188;61.302;2023-08-06T03:48:26;33.56;36.92
74376;HTU21D;62812;55.188;61.302;2023-08-06T03:50:53;33.63;36.88
74376;HTU21D;62812;55.188;61.302;2023-08-06T03:53:21;33.68;36.98
74376;HTU21D;62812;55.188;61.302;2023-08-06T03:55:47;33.86;36.58
74376;HTU21D;62812;55.188;61.302;2023-08-06T03:58:14;33.75;36.62
74376;HTU21D;62812;55.188;61.302;2023-08-06T04:00:41;32.82;37.81
74376;HTU21D;62812;55.188;61.302;2023-08-06T04:03:08;32.85;38.64
74376;HTU21D;62812;55.188;61.302;2023-08-06T04:05:35;33.06;37.92
74376;HTU21D;62812;55.188;61.302;2023-08-06T04:08:08;33.13;37.46
74376;HTU21D;62812;55.188;61.302;2023-08-06T04:10:36;33.16;37.52
74376;HTU21D;62812;55.188;61.302;2023-08-06T04:13:04;32.71;39.30
74376;HTU21D;62812;55.188;61.302;2023-08-06T04:15:34;33.04;38.18
74376;HTU21D;62812;55.188;61.302;2023-08-06T04:18:01;33.38;37.42
74376;HTU21D;62812;55.188;61.302;2023-08-06T04:20:27;33.60;37.00
74376;HTU21D;62812;55.188;61.302;2023-08-06T04:22:54;33.23;38.51
74376;HTU21D;62812;55.188;61.302;2023-08-06T04:25:23;33.00;38.82
74376;HTU21D;62812;55.188;61.302;2023-08-06T04:27:53;33.23;38.20
74376;HTU21D;62812;55.188;61.302;2023-08-06T04:30:20;33.01;38.06
74376;HTU21D;62812;55.188;61.302;2023-08-06T04:32:49;32.76;37.94
74376;HTU21D;62812;55.188;61.302;2023-08-06T04:35:22;32.32;38.42
74376;HTU21D;62812;55.188;61.302;2023-08-06T04:37:49;31.59;40.00
74376;HTU21D;62812;55.188;61.302;2023-08-06T04:40:16;30.94;41.68
74376;HTU21D;62812;55.188;61.302;2023-08-06T04:42:42;31.27;42.97
74376;HTU21D;62812;55.188;61.302;2023-08-06T04:45:11;31.29;42.36
74376;HTU21D;62812;55.188;61.302;2023-08-06T04:47:38;31.57;40.52
74376;HTU21D;62812;55.188;61.302;2023-08-06T04:50:06;31.59;40.10
74376;HTU21D;62812;55.188;61.302;2023-08-06T04:52:32;31.76;40.43
74376;HTU21D;62812;55.188;61.302;2023-08-06T04:54:59;31.63;39.57
74376;HTU21D;62812;55.188;61.302;2023-08-06T04:57:25;31.18;41.06
74376;HTU21D;62812;55.188;61.302;2023-08-06T04:59:53;31.70;41.78
74376;HTU21D;62812;55.188;61.302;2023-08-06T05:02:21;32.30;40.42
74376;HTU21D;62812;55.188;61.302;2023-08-06T05:04:47;32.79;39.17
74376;HTU21D;62812;55.188;61.302;2023-08-06T05:07:14;33.00;38.63
74376;HTU21D;62812;55.188;61.302;2023-08-06T05:09:41;33.34;37.97
74376;HTU21D;62812;55.188;61.302;2023-08-06T05:12:08;33.62;36.99
74376;HTU21D;62812;55.188;61.302;2023-08-06T05:14:34;33.49;37.04
74376;HTU21D;62812;55.188;61.302;2023-08-06T05:17:01;33.35;37.32
74376;HTU21D;62812;55.188;61.302;2023-08-06T05:19:31;32.79;36.84
74376;HTU21D;62812;55.188;61.302;2023-08-06T05:21:57;32.32;39.50
74376;HTU21D;62812;55.188;61.302;2023-08-06T05:24:24;32.44;39.22
74376;HTU21D;62812;55.188;61.302;2023-08-06T05:26:51;32.59;39.04
74376;HTU21D;62812;55.188;61.302;2023-08-06T05:29:17;32.63;38.80
74376;HTU21D;62812;55.188;61.302;2023-08-06T05:31:44;32.58;38.80
74376;HTU21D;62812;55.188;61.302;2023-08-06T05:34:16;32.42;39.14
74376;HTU21D;62812;55.188;61.302;2023-08-06T05:36:45;32.04;40.19
74376;HTU21D;62812;55.188;61.302;2023-08-06T05:39:13;32.09;40.10
74376;HTU21D;62812;55.188;61.302;2023-08-06T05:41:40;32.07;40.10
74376;HTU21D;62812;55.188;61.302;2023-08-06T05:44:07;32.03;40.17
74376;HTU21D;62812;55.188;61.302;2023-08-06T05:46:35;31.98;40.31
74376;HTU21D;62812;55.188;61.302;2023-08-06T05:49:02;31.76;40.88
74376;HTU21D;62812;55.188;61.302;2023-08-06T05:51:29;31.65;41.34
74376;HTU21D;62812;55.188;61.302;2023-08-06T05:53:57;31.61;41.58
74376;HTU21D;62812;55.188;61.302;2023-08-06T05:56:24;31.54;42.17
74376;HTU21D;62812;55.188;61.302;2023-08-06T05:58:51;31.45;42.65
74376;HTU21D;62812;55.188;61.302;2023-08-06T06:01:26;31.53;42.63
74376;HTU21D;62812;55.188;61.302;2023-08-06T06:04:09;31.59;42.83
74376;HTU21D;62812;55.188;61.302;2023-08-06T06:06:42;31.60;42.77
74376;HTU21D;62812;55.188;61.302;2023-08-06T06:09:11;31.63;42.74
74376;HTU21D;62812;55.188;61.302;2023-08-06T06:11:37;31.64;42.65
74376;HTU21D;62812;55.188;61.302;2023-08-06T06:14:04;31.59;42.70
74376;HTU21D;62812;55.188;61.302;2023-08-06T06:16:30;31.43;42.97
74376;HTU21D;62812;55.188;61.302;2023-08-06T06:18:57;31.36;43.11
74376;HTU21D;62812;55.188;61.302;2023-08-06T06:21:24;31.41;43.26
74376;HTU21D;62812;55.188;61.302;2023-08-06T06:23:50;31.42;43.01
74376;HTU21D;62812;55.188;61.302;2023-08-06T06:26:21;31.35;43.35
74376;HTU21D;62812;55.188;61.302;2023-08-06T06:28:48;31.41;43.23
74376;HTU21D;62812;55.188;61.302;2023-08-06T06:31:14;31.56;42.90
74376;HTU21D;62812;55.188;61.302;2023-08-06T06:33:47;31.63;42.80
74376;HTU21D;62812;55.188;61.302;2023-08-06T06:36:13;31.56;42.97
74376;HTU21D;62812;55.188;61.302;2023-08-06T06:38:40;31.40;43.46
74376;HTU21D;62812;55.188;61.302;2023-08-06T06:41:06;31.15;43.94
74376;HTU21D;62812;55.188;61.302;2023-08-06T06:43:34;31.07;44.34
74376;HTU21D;62812;55.188;61.302;2023-08-06T06:46:01;30.93;45.00
74376;HTU21D;62812;55.188;61.302;2023-08-06T06:48:29;30.99;45.41
74376;HTU21D;62812;55.188;61.302;2023-08-06T06:50:56;31.12;45.16
74376;HTU21D;62812;55.188;61.302;2023-08-06T06:53:22;31.14;45.02
74376;HTU21D;62812;55.188;61.302;2023-08-06T06:55:55;31.09;45.66
74376;HTU21D;62812;55.188;61.302;2023-08-06T06:58:23;31.14;45.25
74376;HTU21D;62812;55.188;61.302;2023-08-06T07:00:54;31.02;45.59
74376;HTU21D;62812;55.188;61.302;2023-08-06T07:03:22;30.90;45.66
74376;HTU21D;62812;55.188;61.302;2023-08-06T07:05:49;30.75;46.40
74376;HTU21D;62812;55.188;61.302;2023-08-06T07:08:16;30.51;46.35
74376;HTU21D;62812;55.188;61.302;2023-08-06T07:10:42;30.32;46.69
74376;HTU21D;62812;55.188;61.302;2023-08-06T07:13:10;30.13;46.90
74376;HTU21D;62812;55.188;61.302;2023-08-06T07:15:37;30.00;45.09
74376;HTU21D;62812;55.188;61.302;2023-08-06T07:18:05;29.91;45.08
74376;HTU21D;62812;55.188;61.302;2023-08-06T07:20:32;29.97;45.41
74376;HTU21D;62812;55.188;61.302;2023-08-06T07:23:01;30.04;44.09
74376;HTU21D;62812;55.188;61.302;2023-08-06T07:25:28;29.90;42.72
74376;HTU21D;62812;55.188;61.302;2023-08-06T07:27:54;29.50;43.91
74376;HTU21D;62812;55.188;61.302;2023-08-06T07:30:22;29.53;43.48
74376;HTU21D;62812;55.188;61.302;2023-08-06T07:32:50;29.66;43.35
74376;HTU21D;62812;55.188;61.302;2023-08-06T07:35:30;29.58;42.65
74376;HTU21D;62812;55.188;61.302;2023-08-06T07:37:57;29.41;44.06
74376;HTU21D;62812;55.188;61.302;2023-08-06T07:40:24;29.15;45.00
74376;HTU21D;62812;55.188;61.302;2023-08-06T07:42:51;29.02;45.57
74376;HTU21D;62812;55.188;61.302;2023-08-06T07:45:19;28.44;47.51
74376;HTU21D;62812;55.188;61.302;2023-08-06T07:47:46;28.18;48.66
74376;HTU21D;62812;55.188;61.302;2023-08-06T07:50:12;27.83;50.55
74376;HTU21D;62812;55.188;61.302;2023-08-06T07:52:42;27.13;51.56
74376;HTU21D;62812;55.188;61.302;2023-08-06T07:55:09;26.89;52.49
74376;HTU21D;62812;55.188;61.302;2023-08-06T07:57:35;26.67;53.68
74376;HTU21D;62812;55.188;61.302;2023-08-06T08:00:05;26.34;54.92
74376;HTU21D;62812;55.188;61.302;2023-08-06T08:02:32;25.78;55.20
74376;HTU21D;62812;55.188;61.302;2023-08-06T08:05:00;24.82;57.37
74376;HTU21D;62812;55.188;61.302;2023-08-06T08:07:26;24.57;58.21
74376;HTU21D;62812;55.188;61.302;2023-08-06T08:10:00;24.16;59.36
74376;HTU21D;62812;55.188;61.302;2023-08-06T08:12:28;23.81;59.87
74376;HTU21D;62812;55.188;61.302;2023-08-06T08:14:56;23.95;59.99
74376;HTU21D;62812;55.188;61.302;2023-08-06T08:17:24;24.23;58.67
74376;HTU21D;62812;55.188;61.302;2023-08-06T08:19:51;24.39;58.49
74376;HTU21D;62812;55.188;61.302;2023-08-06T08:22:18;24.38;59.60
74376;HTU21D;62812;55.188;61.302;2023-08-06T08:24:45;24.18;60.72
74376;HTU21D;62812;55.188;61.302;2023-08-06T08:27:19;24.21;61.08
74376;HTU21D;62812;55.188;61.302;2023-08-06T08:29:46;24.10;61.30
74376;HTU21D;62812;55.188;61.302;2023-08-06T08:32:13;23.96;61.76
74376;HTU21D;62812;55.188;61.302;2023-08-06T08:34:47;23.68;62.61
74376;HTU21D;62812;55.188;61.302;2023-08-06T08:37:16;23.25;64.38
74376;HTU21D;62812;55.188;61.302;2023-08-06T08:39:44;22.51;67.70
74376;HTU21D;62812;55.188;61.302;2023-08-06T08:42:14;22.16;67.43
74376;HTU21D;62812;55.188;61.302;2023-08-06T08:44:43;21.89;70.53
74376;HTU21D;62812;55.188;61.302;2023-08-06T08:47:10;21.59;70.45
74376;HTU21D;62812;55.188;61.302;2023-08-06T08:49:38;21.47;70.16
74376;HTU21D;62812;55.188;61.302;2023-08-06T08:52:10;21.34;71.09
74376;HTU21D;62812;55.188;61.302;2023-08-06T08:54:40;21.33;71.06
74376;HTU21D;62812;55.188;61.302;2023-08-06T08:57:09;21.23;72.19
74376;HTU21D;62812;55.188;61.302;2023-08-06T08:59:38;21.01;71.91
74376;HTU21D;62812;55.188;61.302;2023-08-06T09:02:05;20.98;72.22
74376;HTU21D;62812;55.188;61.302;2023-08-06T09:04:34;21.02;72.79
74376;HTU21D;62812;55.188;61.302;2023-08-06T09:07:04;20.94;73.90
74376;HTU21D;62812;55.188;61.302;2023-08-06T09:09:33;20.89;73.95
74376;HTU21D;62812;55.188;61.302;2023-08-06T09:12:16;20.80;76.35
74376;HTU21D;62812;55.188;61.302;2023-08-06T09:14:50;20.74;76.44
74376;HTU21D;62812;55.188;61.302;2023-08-06T09:17:17;20.69;75.56
74376;HTU21D;62812;55.188;61.302;2023-08-06T09:19:47;20.65;74.64
74376;HTU21D;62812;55.188;61.302;2023-08-06T09:22:14;20.71;73.90
74376;HTU21D;62812;55.188;61.302;2023-08-06T09:24:42;20.80;73.90
74376;HTU21D;62812;55.188;61.302;2023-08-06T09:27:11;20.73;73.86
74376;HTU21D;62812;55.188;61.302;2023-08-06T09:29:44;20.72;73.82
74376;HTU21D;62812;55.188;61.302;2023-08-06T09:32:13;20.69;75.50
74376;HTU21D;62812;55.188;61.302;2023-08-06T09:34:56;20.71;76.51
74376;HTU21D;62812;55.188;61.302;2023-08-06T09:37:35;20.68;74.89
74376;HTU21D;62812;55.188;61.302;2023-08-06T09:40:25;20.75;76.20
74376;HTU21D;62812;55.188;61.302;2023-08-06T09:42:53;20.85;77.08
74376;HTU21D;62812;55.188;61.302;2023-08-06T09:45:21;20.87;76.64
74376;HTU21D;62812;55.188;61.302;2023-08-06T09:47:59;20.90;75.60
74376;HTU21D;62812;55.188;61.302;2023-08-06T09:50:28;20.81;75.01
74376;HTU21D;62812;55.188;61.302;2023-08-06T09:52:58;20.88;74.92
74376;HTU21D;62812;55.188;61.302;2023-08-06T09:55:25;20.92;74.82
74376;HTU21D;62812;55.188;61.302;2023-08-06T09:57:53;21.00;75.06
74376;HTU21D;62812;55.188;61.302;2023-08-06T10:00:20;21.03;73.83
74376;HTU21D;62812;55.188;61.302;2023-08-06T10:02:49;21.08;74.09
74376;HTU21D;62812;55.188;61.302;2023-08-06T10:05:19;21.14;72.56
74376;HTU21D;62812;55.188;61.302;2023-08-06T10:07:50;21.30;71.56
74376;HTU21D;62812;55.188;61.302;2023-08-06T10:11:03;21.36;71.27
74376;HTU21D;62812;55.188;61.302;2023-08-06T10:13:33;21.40;71.60
74376;HTU21D;62812;55.188;61.302;2023-08-06T10:16:01;21.67;69.55
74376;HTU21D;62812;55.188;61.302;2023-08-06T10:18:29;21.59;69.20
74376;HTU21D;62812;55.188;61.302;2023-08-06T10:20:59;21.64;70.49
74376;HTU21D;62812;55.188;61.302;2023-08-06T10:23:33;21.64;69.74
74376;HTU21D;62812;55.188;61.302;2023-08-06T10:26:01;21.67;69.42
74376;HTU21D;62812;55.188;61.302;2023-08-06T10:28:34;21.61;67.88
74376;HTU21D;62812;55.188;61.302;2023-08-06T10:31:04;21.76;71.02
74376;HTU21D;62812;55.188;61.302;2023-08-06T10:33:42;22.01;68.58
74376;HTU21D;62812;55.188;61.302;2023-08-06T10:36:19;22.10;68.92
74376;HTU21D;62812;55.188;61.302;2023-08-06T10:38:47;22.08;66.82
74376;HTU21D;62812;55.188;61.302;2023-08-06T10:41:23;22.28;68.43
74376;HTU21D;62812;55.188;61.302;2023-08-06T10:44:08;22.52;67.91
74376;HTU21D;62812;55.188;61.302;2023-08-06T10:46:35;22.60;67.65
74376;HTU21D;62812;55.188;61.302;2023-08-06T10:49:07;22.56;65.53
74376;HTU21D;62812;55.188;61.302;2023-08-06T10:51:36;22.99;64.67
74376;HTU21D;62812;55.188;61.302;2023-08-06T10:54:03;23.22;64.15
74376;HTU21D;62812;55.188;61.302;2023-08-06T10:56:32;23.86;65.30
74376;HTU21D;62812;55.188;61.302;2023-08-06T10:59:10;24.58;62.68
74376;HTU21D;62812;55.188;61.302;2023-08-06T11:01:38;24.83;61.36
74376;HTU21D;62812;55.188;61.302;2023-08-06T11:04:05;25.21;57.00
74376;HTU21D;62812;55.188;61.302;2023-08-06T11:06:32;25.49;55.00
74376;HTU21D;62812;55.188;61.302;2023-08-06T11:09:01;25.63;57.79
74376;HTU21D;62812;55.188;61.302;2023-08-06T11:11:28;24.70;57.51
74376;HTU21D;62812;55.188;61.302;2023-08-06T11:13:55;24.24;57.39
74376;HTU21D;62812;55.188;61.302;2023-08-06T11:16:23;24.46;57.32
74376;HTU21D;62812;55.188;61.302;2023-08-06T11:18:53;24.47;56.87
74376;HTU21D;62812;55.188;61.302;2023-08-06T11:21:21;23.89;54.60
74376;HTU21D;62812;55.188;61.302;2023-08-06T11:23:48;23.79;59.06
74376;HTU21D;62812;55.188;61.302;2023-08-06T11:26:20;23.75;59.63
74376;HTU21D;62812;55.188;61.302;2023-08-06T11:28:47;24.24;56.38
74376;HTU21D;62812;55.188;61.302;2023-08-06T11:31:19;24.70;57.98
74376;HTU21D;62812;55.188;61.302;2023-08-06T11:33:47;24.49;55.34
74376;HTU21D;62812;55.188;61.302;2023-08-06T11:36:14;24.33;55.59
74376;HTU21D;62812;55.188;61.302;2023-08-06T11:38:43;24.32;55.03
74376;HTU21D;62812;55.188;61.302;2023-08-06T11:41:09;24.16;56.29
74376;HTU21D;62812;55.188;61.302;2023-08-06T11:43:38;24.17;57.24
74376;HTU21D;62812;55.188;61.302;2023-08-06T11:46:05;23.94;52.62
74376;HTU21D;62812;55.188;61.302;2023-08-06T11:48:31;24.08;57.13
74376;HTU21D;62812;55.188;61.302;2023-08-06T11:50:58;23.72;53.30
74376;HTU21D;62812;55.188;61.302;2023-08-06T11:53:27;23.70;53.84
74376;HTU21D;62812;55.188;61.302;2023-08-06T11:55:58;23.76;53.04
74376;HTU21D;62812;55.188;61.302;2023-08-06T11:58:30;24.20;52.69
74376;HTU21D;62812;55.188;61.302;2023-08-06T12:00:59;23.55;54.32
74376;HTU21D;62812;55.188;61.302;2023-08-06T12:03:29;23.43;56.42
74376;HTU21D;62812;55.188;61.302;2023-08-06T12:05:59;23.26;54.52
74376;HTU21D;62812;55.188;61.302;2023-08-06T12:08:27;23.22;57.29
74376;HTU21D;62812;55.188;61.302;2023-08-06T12:10:55;23.22;56.50
74376;HTU21D;62812;55.188;61.302;2023-08-06T12:13:21;23.34;54.57
74376;HTU21D;62812;55.188;61.302;2023-08-06T12:15:50;23.60;57.51
74376;HTU21D;62812;55.188;61.302;2023-08-06T12:18:21;24.03;56.16
74376;HTU21D;62812;55.188;61.302;2023-08-06T12:20:48;23.99;55.23
74376;HTU21D;62812;55.188;61.302;2023-08-06T12:23:15;23.75;53.88
74376;HTU21D;62812;55.188;61.302;2023-08-06T12:25:46;23.87;56.38
74376;HTU21D;62812;55.188;61.302;2023-08-06T12:28:17;24.20;58.33
74376;HTU21D;62812;55.188;61.302;2023-08-06T12:30:44;24.39;56.76
74376;HTU21D;62812;55.188;61.302;2023-08-06T12:33:12;24.29;52.24
74376;HTU21D;62812;55.188;61.302;2023-08-06T12:35:44;24.14;54.69
74376;HTU21D;62812;55.188;61.302;2023-08-06T12:38:12;23.87;54.36
74376;HTU21D;62812;55.188;61.302;2023-08-06T12:40:40;23.45;54.23
74376;HTU21D;62812;55.188;61.302;2023-08-06T12:43:08;23.31;55.27
74376;HTU21D;62812;55.188;61.302;2023-08-06T12:45:34;23.12;56.09
74376;HTU21D;62812;55.188;61.302;2023-08-06T12:48:03;23.17;57.26
74376;HTU21D;62812;55.188;61.302;2023-08-06T12:50:30;23.13;56.15
74376;HTU21D;62812;55.188;61.302;2023-08-06T12:53:00;23.14;56.10
74376;HTU21D;62812;55.188;61.302;2023-08-06T12:55:27;23.07;57.26
74376;HTU21D;62812;55.188;61.302;2023-08-06T12:57:54;23.03;56.80
74376;HTU21D;62812;55.188;61.302;2023-08-06T13:00:21;22.99;57.57
74376;HTU21D;62812;55.188;61.302;2023-08-06T13:02:49;23.02;58.16
74376;HTU21D;62812;55.188;61.302;2023-08-06T13:05:16;22.94;58.10
74376;HTU21D;62812;55.188;61.302;2023-08-06T13:07:42;22.86;58.83
74376;HTU21D;62812;55.188;61.302;2023-08-06T13:10:16;22.77;59.26
74376;HTU21D;62812;55.188;61.302;2023-08-06T13:12:43;22.90;59.99
74376;HTU21D;62812;55.188;61.302;2023-08-06T13:15:10;22.97;59.10
74376;HTU21D;62812;55.188;61.302;2023-08-06T13:17:37;22.87;59.97
74376;HTU21D;62812;55.188;61.302;2023-08-06T13:20:05;22.81;60.11
74376;HTU21D;62812;55.188;61.302;2023-08-06T13:22:33;22.79;60.44
74376;HTU21D;62812;55.188;61.302;2023-08-06T13:25:01;22.95;60.22
74376;HTU21D;62812;55.188;61.302;2023-08-06T13:27:30;22.98;60.06
74376;HTU21D;62812;55.188;61.302;2023-08-06T13:29:56;23.05;60.10
74376;HTU21D;62812;55.188;61.302;2023-08-06T13:32:23;23.43;60.73
74376;HTU21D;62812;55.188;61.302;2023-08-06T13:34:51;23.49;58.81
74376;HTU21D;62812;55.188;61.302;2023-08-06T13:37:17;23.54;59.36
74376;HTU21D;62812;55.188;61.302;2023-08-06T13:39:44;23.72;59.38
74376;HTU21D;62812;55.188;61.302;2023-08-06T13:42:12;23.65;59.23
74376;HTU21D;62812;55.188;61.302;2023-08-06T13:44:41;23.44;58.78
74376;HTU21D;62812;55.188;61.302;2023-08-06T13:47:08;23.12;59.37
74376;HTU21D;62812;55.188;61.302;2023-08-06T13:49:43;23.07;59.86
74376;HTU21D;62812;55.188;61.302;2023-08-06T13:52:29;23.10;59.63
74376;HTU21D;62812;55.188;61.302;2023-08-06T13:54:56;23.12;59.41
74376;HTU21D;62812;55.188;61.302;2023-08-06T13:57:23;23.09;59.38
74376;HTU21D;62812;55.188;61.302;2023-08-06T13:59:52;23.13;59.82
74376;HTU21D;62812;55.188;61.302;2023-08-06T14:02:22;23.09;60.02
74376;HTU21D;62812;55.188;61.302;2023-08-06T14:04:49;22.90;60.53
74376;HTU21D;62812;55.188;61.302;2023-08-06T14:07:17;22.73;61.67
74376;HTU21D;62812;55.188;61.302;2023-08-06T14:09:44;22.70;61.98
74376;HTU21D;62812;55.188;61.302;2023-08-06T14:12:14;22.75;62.28
74376;HTU21D;62812;55.188;61.302;2023-08-06T14:14:46;22.65;62.04
74376;HTU21D;62812;55.188;61.302;2023-08-06T14:17:21;22.58;62.15
74376;HTU21D;62812;55.188;61.302;2023-08-06T14:19:49;22.57;61.99
74376;HTU21D;62812;55.188;61.302;2023-08-06T14:22:16;22.69;61.30
74376;HTU21D;62812;55.188;61.302;2023-08-06T14:24:42;22.51;61.86
74376;HTU21D;62812;55.188;61.302;2023-08-06T14:27:12;22.44;62.41
74376;HTU21D;62812;55.188;61.302;2023-08-06T14:29:39;22.42;62.56
74376;HTU21D;62812;55.188;61.302;2023-08-06T14:32:07;22.52;62.44
74376;HTU21D;62812;55.188;61.302;2023-08-06T14:34:37;22.38;63.06
74376;HTU21D;62812;55.188;61.302;2023-08-06T14:37:12;22.39;63.24
74376;HTU21D;62812;55.188;61.302;2023-08-06T14:39:39;22.43;63.40
74376;HTU21D;62812;55.188;61.302;2023-08-06T14:42:07;22.48;63.46
74376;HTU21D;62812;55.188;61.302;2023-08-06T14:44:36;22.47;63.59
74376;HTU21D;62812;55.188;61.302;2023-08-06T14:47:05;22.56;63.92
74376;HTU21D;62812;55.188;61.302;2023-08-06T14:49:33;22.46;64.05
74376;HTU21D;62812;55.188;61.302;2023-08-06T14:52:02;22.53;64.03
74376;HTU21D;62812;55.188;61.302;2023-08-06T14:54:30;22.57;64.02
74376;HTU21D;62812;55.188;61.302;2023-08-06T14:56:58;22.62;64.22
74376;HTU21D;62812;55.188;61.302;2023-08-06T14:59:26;22.73;63.72
74376;HTU21D;62812;55.188;61.302;2023-08-06T15:01:55;23.09;63.56
74376;HTU21D;62812;55.188;61.302;2023-08-06T15:04:22;23.38;63.19
74376;HTU21D;62812;55.188;61.302;2023-08-06T15:06:50;23.43;63.11
74376;HTU21D;62812;55.188;61.302;2023-08-06T15:09:18;23.36;61.99
74376;HTU21D;62812;55.188;61.302;2023-08-06T15:11:49;23.38;62.32